sensor_id;sensor_type;location;lat;lon;timestamp;P1;durP1;ratioP1;P2;durP2;ratioP2
16760;SDS011;8498;52.516;13.790;2023-08-01T00:02:28;4.10;;;3.38;;
16760;SDS011;8498;52.516;13.790;2023-08-01T00:07:51;7.00;;;3.92;;
16760;SDS011;8498;52.516;13.790;2023-08-01T00:13:14;6.63;;;3.40;;
16760;SDS011;8498;52.516;13.790;2023-08-01T00:18:36;7.20;;;4.00;;
16760;SDS011;8498;52.516;13.790;2023-08-01T00:23:59;7.38;;;3.40;;
16760;SDS011;8498;52.516;13.790;2023-08-01T00:29:21;6.28;;;4.05;;
16760;SDS011;8498;52.516;13.790;2023-08-01T00:34:45;8.48;;;3.83;;
16760;SDS011;8498;52.516;13.790;2023-08-01T00:40:08;8.98;;;4.22;;
16760;SDS011;8498;52.516;13.790;2023-08-01T00:45:37;8.02;;;3.58;;
16760;SDS011;8498;52.516;13.790;2023-08-01T00:51:01;7.55;;;3.20;;
16760;SDS011;8498;52.516;13.790;2023-08-01T00:56:26;9.00;;;3.13;;
16760;SDS011;8498;52.516;13.790;2023-08-01T01:01:49;5.35;;;3.08;;
16760;SDS011;8498;52.516;13.790;2023-08-01T01:07:12;10.32;;;3.38;;
16760;SDS011;8498;52.516;13.790;2023-08-01T01:12:36;6.55;;;3.20;;
16760;SDS011;8498;52.516;13.790;2023-08-01T01:17:59;5.15;;;2.70;;
16760;SDS011;8498;52.516;13.790;2023-08-01T01:23:21;4.13;;;2.85;;
16760;SDS011;8498;52.516;13.790;2023-08-01T01:28:44;5.70;;;2.88;;
16760;SDS011;8498;52.516;13.790;2023-08-01T01:34:07;4.15;;;2.97;;
16760;SDS011;8498;52.516;13.790;2023-08-01T01:39:29;4.93;;;2.88;;
16760;SDS011;8498;52.516;13.790;2023-08-01T01:44:52;5.00;;;2.85;;
16760;SDS011;8498;52.516;13.790;2023-08-01T01:50:14;7.32;;;2.92;;
16760;SDS011;8498;52.516;13.790;2023-08-01T01:55:40;6.47;;;3.35;;
16760;SDS011;8498;52.516;13.790;2023-08-01T02:01:03;5.38;;;3.42;;
16760;SDS011;8498;52.516;13.790;2023-08-01T02:06:25;5.85;;;3.50;;
16760;SDS011;8498;52.516;13.790;2023-08-01T02:11:48;9.00;;;3.60;;
16760;SDS011;8498;52.516;13.790;2023-08-01T02:17:11;6.72;;;4.25;;
16760;SDS011;8498;52.516;13.790;2023-08-01T02:22:33;8.32;;;4.13;;
16760;SDS011;8498;52.516;13.790;2023-08-01T02:27:56;6.03;;;3.70;;
16760;SDS011;8498;52.516;13.790;2023-08-01T02:33:18;7.28;;;4.40;;
16760;SDS011;8498;52.516;13.790;2023-08-01T02:38:40;9.43;;;4.72;;
16760;SDS011;8498;52.516;13.790;2023-08-01T02:44:03;12.60;;;4.35;;
16760;SDS011;8498;52.516;13.790;2023-08-01T02:49:25;11.68;;;4.78;;
16760;SDS011;8498;52.516;13.790;2023-08-01T02:54:48;9.18;;;5.10;;
16760;SDS011;8498;52.516;13.790;2023-08-01T03:00:10;15.75;;;4.50;;
16760;SDS011;8498;52.516;13.790;2023-08-01T03:05:36;7.88;;;4.47;;
16760;SDS011;8498;52.516;13.790;2023-08-01T03:10:59;9.60;;;4.43;;
16760;SDS011;8498;52.516;13.790;2023-08-01T03:16:23;8.65;;;4.40;;
16760;SDS011;8498;52.516;13.790;2023-08-01T03:21:45;8.25;;;4.50;;
16760;SDS011;8498;52.516;13.790;2023-08-01T03:27:08;6.15;;;4.00;;
16760;SDS011;8498;52.516;13.790;2023-08-01T03:32:31;8.05;;;4.25;;
16760;SDS011;8498;52.516;13.790;2023-08-01T03:37:54;8.90;;;3.92;;
16760;SDS011;8498;52.516;13.790;2023-08-01T03:43:16;7.10;;;3.95;;
16760;SDS011;8498;52.516;13.790;2023-08-01T03:48:39;7.45;;;4.55;;
16760;SDS011;8498;52.516;13.790;2023-08-01T03:54:01;5.45;;;3.95;;
16760;SDS011;8498;52.516;13.790;2023-08-01T03:59:34;7.47;;;4.43;;
16760;SDS011;8498;52.516;13.790;2023-08-01T04:04:59;8.23;;;3.65;;
16760;SDS011;8498;52.516;13.790;2023-08-01T04:10:21;5.57;;;3.55;;
16760;SDS011;8498;52.516;13.790;2023-08-01T04:15:44;5.25;;;3.58;;
16760;SDS011;8498;52.516;13.790;2023-08-01T04:21:07;5.60;;;3.33;;
16760;SDS011;8498;52.516;13.790;2023-08-01T04:26:30;4.50;;;3.17;;
16760;SDS011;8498;52.516;13.790;2023-08-01T04:31:52;7.80;;;3.70;;
16760;SDS011;8498;52.516;13.790;2023-08-01T04:37:15;6.00;;;3.38;;
16760;SDS011;8498;52.516;13.790;2023-08-01T04:42:37;9.38;;;3.72;;
16760;SDS011;8498;52.516;13.790;2023-08-01T04:48:00;7.25;;;4.07;;
16760;SDS011;8498;52.516;13.790;2023-08-01T04:53:22;5.45;;;3.35;;
16760;SDS011;8498;52.516;13.790;2023-08-01T04:58:44;5.93;;;3.38;;
16760;SDS011;8498;52.516;13.790;2023-08-01T05:04:07;6.22;;;3.35;;
16760;SDS011;8498;52.516;13.790;2023-08-01T05:09:29;6.35;;;3.15;;
16760;SDS011;8498;52.516;13.790;2023-08-01T05:14:52;6.90;;;3.55;;
16760;SDS011;8498;52.516;13.790;2023-08-01T05:20:14;8.50;;;3.17;;
16760;SDS011;8498;52.516;13.790;2023-08-01T05:25:37;5.70;;;3.30;;
16760;SDS011;8498;52.516;13.790;2023-08-01T05:30:59;3.90;;;3.13;;
16760;SDS011;8498;52.516;13.790;2023-08-01T05:36:22;5.85;;;3.50;;
16760;SDS011;8498;52.516;13.790;2023-08-01T05:41:44;4.07;;;2.83;;
16760;SDS011;8498;52.516;13.790;2023-08-01T05:47:07;4.18;;;2.65;;
16760;SDS011;8498;52.516;13.790;2023-08-01T05:52:29;5.50;;;2.70;;
16760;SDS011;8498;52.516;13.790;2023-08-01T05:57:52;4.70;;;2.78;;
16760;SDS011;8498;52.516;13.790;2023-08-01T06:03:15;4.85;;;2.65;;
16760;SDS011;8498;52.516;13.790;2023-08-01T06:08:38;5.57;;;3.20;;
16760;SDS011;8498;52.516;13.790;2023-08-01T06:14:01;4.43;;;2.70;;
16760;SDS011;8498;52.516;13.790;2023-08-01T06:19:24;3.45;;;2.80;;
16760;SDS011;8498;52.516;13.790;2023-08-01T06:24:46;4.50;;;2.95;;
16760;SDS011;8498;52.516;13.790;2023-08-01T06:30:08;10.23;;;3.25;;
16760;SDS011;8498;52.516;13.790;2023-08-01T06:35:32;4.57;;;3.00;;
16760;SDS011;8498;52.516;13.790;2023-08-01T06:40:54;3.65;;;2.90;;
16760;SDS011;8498;52.516;13.790;2023-08-01T06:46:17;3.33;;;3.03;;
16760;SDS011;8498;52.516;13.790;2023-08-01T06:51:39;9.13;;;2.95;;
16760;SDS011;8498;52.516;13.790;2023-08-01T06:57:03;3.55;;;3.03;;
16760;SDS011;8498;52.516;13.790;2023-08-01T07:02:26;3.33;;;2.75;;
16760;SDS011;8498;52.516;13.790;2023-08-01T07:07:49;6.55;;;3.00;;
16760;SDS011;8498;52.516;13.790;2023-08-01T07:13:13;5.35;;;2.60;;
16760;SDS011;8498;52.516;13.790;2023-08-01T07:18:35;4.03;;;3.03;;
16760;SDS011;8498;52.516;13.790;2023-08-01T07:23:57;3.13;;;2.83;;
16760;SDS011;8498;52.516;13.790;2023-08-01T07:29:19;4.95;;;2.55;;
16760;SDS011;8498;52.516;13.790;2023-08-01T07:34:42;4.18;;;2.83;;
16760;SDS011;8498;52.516;13.790;2023-08-01T07:40:07;3.65;;;3.13;;
16760;SDS011;8498;52.516;13.790;2023-08-01T07:45:32;8.65;;;3.25;;
16760;SDS011;8498;52.516;13.790;2023-08-01T07:50:56;3.67;;;2.92;;
16760;SDS011;8498;52.516;13.790;2023-08-01T07:56:19;2.88;;;2.55;;
16760;SDS011;8498;52.516;13.790;2023-08-01T08:01:42;4.65;;;3.05;;
16760;SDS011;8498;52.516;13.790;2023-08-01T08:07:05;6.03;;;2.72;;
16760;SDS011;8498;52.516;13.790;2023-08-01T08:12:27;3.22;;;2.58;;
16760;SDS011;8498;52.516;13.790;2023-08-01T08:17:50;2.90;;;2.65;;
16760;SDS011;8498;52.516;13.790;2023-08-01T08:23:13;3.25;;;2.33;;
16760;SDS011;8498;52.516;13.790;2023-08-01T08:28:36;3.53;;;2.47;;
16760;SDS011;8498;52.516;13.790;2023-08-01T08:33:58;5.43;;;2.58;;
16760;SDS011;8498;52.516;13.790;2023-08-01T08:39:21;2.92;;;2.22;;
16760;SDS011;8498;52.516;13.790;2023-08-01T08:44:43;2.35;;;2.20;;
16760;SDS011;8498;52.516;13.790;2023-08-01T08:50:07;2.53;;;2.33;;
16760;SDS011;8498;52.516;13.790;2023-08-01T08:55:31;4.05;;;2.10;;
16760;SDS011;8498;52.516;13.790;2023-08-01T09:00:54;4.18;;;2.30;;
16760;SDS011;8498;52.516;13.790;2023-08-01T09:06:17;2.30;;;2.10;;
16760;SDS011;8498;52.516;13.790;2023-08-01T09:11:46;3.45;;;1.83;;
16760;SDS011;8498;52.516;13.790;2023-08-01T09:17:10;3.13;;;2.30;;
16760;SDS011;8498;52.516;13.790;2023-08-01T09:22:43;3.83;;;1.98;;
16760;SDS011;8498;52.516;13.790;2023-08-01T09:33:40;3.75;;;2.10;;
16760;SDS011;8498;52.516;13.790;2023-08-01T09:39:03;2.00;;;1.90;;
16760;SDS011;8498;52.516;13.790;2023-08-01T09:44:26;1.98;;;1.80;;
16760;SDS011;8498;52.516;13.790;2023-08-01T09:49:50;1.63;;;1.52;;
16760;SDS011;8498;52.516;13.790;2023-08-01T09:55:14;1.50;;;1.50;;
16760;SDS011;8498;52.516;13.790;2023-08-01T10:00:37;1.15;;;1.15;;
16760;SDS011;8498;52.516;13.790;2023-08-01T10:06:00;1.20;;;1.10;;
16760;SDS011;8498;52.516;13.790;2023-08-01T10:11:23;0.85;;;0.85;;
16760;SDS011;8498;52.516;13.790;2023-08-01T10:16:46;0.75;;;0.75;;
16760;SDS011;8498;52.516;13.790;2023-08-01T10:22:10;2.95;;;0.90;;
16760;SDS011;8498;52.516;13.790;2023-08-01T10:27:33;0.88;;;0.65;;
16760;SDS011;8498;52.516;13.790;2023-08-01T10:32:58;1.67;;;1.05;;
16760;SDS011;8498;52.516;13.790;2023-08-01T10:38:22;0.93;;;0.93;;
16760;SDS011;8498;52.516;13.790;2023-08-01T10:43:44;0.90;;;0.90;;
16760;SDS011;8498;52.516;13.790;2023-08-01T10:49:07;0.65;;;0.60;;
16760;SDS011;8498;52.516;13.790;2023-08-01T10:54:29;0.70;;;0.70;;
16760;SDS011;8498;52.516;13.790;2023-08-01T10:59:57;0.77;;;0.77;;
16760;SDS011;8498;52.516;13.790;2023-08-01T11:05:20;0.90;;;0.90;;
16760;SDS011;8498;52.516;13.790;2023-08-01T11:10:48;0.60;;;0.60;;
16760;SDS011;8498;52.516;13.790;2023-08-01T11:16:11;0.98;;;0.98;;
16760;SDS011;8498;52.516;13.790;2023-08-01T11:21:34;0.60;;;0.50;;
16760;SDS011;8498;52.516;13.790;2023-08-01T11:26:58;0.50;;;0.50;;
16760;SDS011;8498;52.516;13.790;2023-08-01T11:32:20;0.57;;;0.50;;
16760;SDS011;8498;52.516;13.790;2023-08-01T11:37:45;0.85;;;0.65;;
16760;SDS011;8498;52.516;13.790;2023-08-01T11:43:08;1.17;;;0.90;;
16760;SDS011;8498;52.516;13.790;2023-08-01T11:48:31;1.80;;;0.80;;
16760;SDS011;8498;52.516;13.790;2023-08-01T11:54:02;2.25;;;1.02;;
16760;SDS011;8498;52.516;13.790;2023-08-01T11:59:26;2.20;;;1.20;;
16760;SDS011;8498;52.516;13.790;2023-08-01T12:04:48;1.42;;;1.30;;
16760;SDS011;8498;52.516;13.790;2023-08-01T12:10:11;1.08;;;1.02;;
16760;SDS011;8498;52.516;13.790;2023-08-01T12:15:33;1.60;;;1.50;;
16760;SDS011;8498;52.516;13.790;2023-08-01T12:20:56;2.28;;;1.60;;
16760;SDS011;8498;52.516;13.790;2023-08-01T12:26:18;3.53;;;1.60;;
16760;SDS011;8498;52.516;13.790;2023-08-01T12:31:41;2.15;;;1.60;;
16760;SDS011;8498;52.516;13.790;2023-08-01T12:37:04;2.63;;;1.80;;
16760;SDS011;8498;52.516;13.790;2023-08-01T12:42:26;4.30;;;1.98;;
16760;SDS011;8498;52.516;13.790;2023-08-01T12:47:49;2.83;;;2.40;;
16760;SDS011;8498;52.516;13.790;2023-08-01T12:53:12;3.88;;;2.30;;
16760;SDS011;8498;52.516;13.790;2023-08-01T12:58:34;7.30;;;2.25;;
16760;SDS011;8498;52.516;13.790;2023-08-01T13:03:57;4.72;;;2.72;;
16760;SDS011;8498;52.516;13.790;2023-08-01T13:09:20;2.50;;;2.30;;
16760;SDS011;8498;52.516;13.790;2023-08-01T13:14:42;4.07;;;2.38;;
16760;SDS011;8498;52.516;13.790;2023-08-01T13:20:05;4.88;;;2.53;;
16760;SDS011;8498;52.516;13.790;2023-08-01T13:25:28;3.95;;;2.47;;
16760;SDS011;8498;52.516;13.790;2023-08-01T13:30:52;3.30;;;2.15;;
16760;SDS011;8498;52.516;13.790;2023-08-01T13:36:17;4.85;;;2.75;;
16760;SDS011;8498;52.516;13.790;2023-08-01T13:41:42;4.00;;;2.70;;
16760;SDS011;8498;52.516;13.790;2023-08-01T13:47:04;4.57;;;2.70;;
16760;SDS011;8498;52.516;13.790;2023-08-01T13:52:27;3.97;;;2.53;;
16760;SDS011;8498;52.516;13.790;2023-08-01T13:57:49;5.47;;;2.40;;
16760;SDS011;8498;52.516;13.790;2023-08-01T14:03:12;9.75;;;2.45;;
16760;SDS011;8498;52.516;13.790;2023-08-01T14:08:34;3.95;;;2.95;;
16760;SDS011;8498;52.516;13.790;2023-08-01T14:13:57;4.05;;;2.70;;
16760;SDS011;8498;52.516;13.790;2023-08-01T14:19:19;2.55;;;2.35;;
16760;SDS011;8498;52.516;13.790;2023-08-01T14:24:42;3.13;;;2.40;;
16760;SDS011;8498;52.516;13.790;2023-08-01T14:30:05;5.55;;;2.80;;
16760;SDS011;8498;52.516;13.790;2023-08-01T14:35:28;8.10;;;2.50;;
16760;SDS011;8498;52.516;13.790;2023-08-01T14:40:54;2.75;;;2.40;;
16760;SDS011;8498;52.516;13.790;2023-08-01T14:46:36;5.65;;;2.60;;
16760;SDS011;8498;52.516;13.790;2023-08-01T14:51:58;3.38;;;2.30;;
16760;SDS011;8498;52.516;13.790;2023-08-01T14:57:21;3.30;;;2.33;;
16760;SDS011;8498;52.516;13.790;2023-08-01T15:02:43;3.33;;;2.38;;
16760;SDS011;8498;52.516;13.790;2023-08-01T15:08:05;2.38;;;2.17;;
16760;SDS011;8498;52.516;13.790;2023-08-01T15:13:28;3.22;;;2.10;;
16760;SDS011;8498;52.516;13.790;2023-08-01T15:18:51;1.95;;;1.77;;
16760;SDS011;8498;52.516;13.790;2023-08-01T15:24:14;3.33;;;2.35;;
16760;SDS011;8498;52.516;13.790;2023-08-01T15:29:37;3.75;;;2.05;;
16760;SDS011;8498;52.516;13.790;2023-08-01T15:34:59;1.90;;;1.80;;
16760;SDS011;8498;52.516;13.790;2023-08-01T15:40:22;2.53;;;2.03;;
16760;SDS011;8498;52.516;13.790;2023-08-01T15:45:45;4.18;;;2.45;;
16760;SDS011;8498;52.516;13.790;2023-08-01T15:51:07;2.15;;;1.67;;
16760;SDS011;8498;52.516;13.790;2023-08-01T15:56:30;1.92;;;1.15;;
16760;SDS011;8498;52.516;13.790;2023-08-01T16:01:54;5.60;;;1.40;;
16760;SDS011;8498;52.516;13.790;2023-08-01T16:07:16;3.95;;;1.40;;
16760;SDS011;8498;52.516;13.790;2023-08-01T16:12:38;1.20;;;1.10;;
16760;SDS011;8498;52.516;13.790;2023-08-01T16:18:01;0.93;;;0.93;;
16760;SDS011;8498;52.516;13.790;2023-08-01T16:23:24;2.65;;;1.83;;
16760;SDS011;8498;52.516;13.790;2023-08-01T16:28:46;2.40;;;1.65;;
16760;SDS011;8498;52.516;13.790;2023-08-01T16:34:09;1.65;;;1.48;;
16760;SDS011;8498;52.516;13.790;2023-08-01T16:39:31;3.78;;;1.48;;
16760;SDS011;8498;52.516;13.790;2023-08-01T16:44:53;1.55;;;1.45;;
16760;SDS011;8498;52.516;13.790;2023-08-01T16:50:16;3.85;;;1.60;;
16760;SDS011;8498;52.516;13.790;2023-08-01T16:55:39;4.07;;;2.13;;
16760;SDS011;8498;52.516;13.790;2023-08-01T17:01:02;2.35;;;1.73;;
16760;SDS011;8498;52.516;13.790;2023-08-01T17:06:24;4.30;;;1.77;;
16760;SDS011;8498;52.516;13.790;2023-08-01T17:11:47;2.45;;;1.45;;
16760;SDS011;8498;52.516;13.790;2023-08-01T17:17:09;2.38;;;2.10;;
16760;SDS011;8498;52.516;13.790;2023-08-01T17:22:32;4.82;;;1.65;;
16760;SDS011;8498;52.516;13.790;2023-08-01T17:27:54;2.20;;;1.80;;
16760;SDS011;8498;52.516;13.790;2023-08-01T17:33:18;8.98;;;2.42;;
16760;SDS011;8498;52.516;13.790;2023-08-01T17:38:41;1.52;;;1.40;;
16760;SDS011;8498;52.516;13.790;2023-08-01T17:44:03;6.97;;;1.77;;
16760;SDS011;8498;52.516;13.790;2023-08-01T17:49:27;12.65;;;2.20;;
16760;SDS011;8498;52.516;13.790;2023-08-01T17:54:49;2.22;;;1.70;;
16760;SDS011;8498;52.516;13.790;2023-08-01T18:00:11;1.65;;;1.55;;
16760;SDS011;8498;52.516;13.790;2023-08-01T18:05:35;2.45;;;1.70;;
16760;SDS011;8498;52.516;13.790;2023-08-01T18:10:59;5.05;;;1.52;;
16760;SDS011;8498;52.516;13.790;2023-08-01T18:16:22;1.55;;;1.42;;
16760;SDS011;8498;52.516;13.790;2023-08-01T18:21:46;1.73;;;1.30;;
16760;SDS011;8498;52.516;13.790;2023-08-01T18:27:08;1.73;;;1.38;;
16760;SDS011;8498;52.516;13.790;2023-08-01T18:32:30;3.55;;;1.65;;
16760;SDS011;8498;52.516;13.790;2023-08-01T18:37:53;3.85;;;1.52;;
16760;SDS011;8498;52.516;13.790;2023-08-01T18:43:16;3.20;;;1.50;;
16760;SDS011;8498;52.516;13.790;2023-08-01T18:48:38;1.60;;;1.50;;
16760;SDS011;8498;52.516;13.790;2023-08-01T18:54:01;5.15;;;1.80;;
16760;SDS011;8498;52.516;13.790;2023-08-01T18:59:25;1.90;;;1.60;;
16760;SDS011;8498;52.516;13.790;2023-08-01T19:04:48;1.25;;;1.23;;
16760;SDS011;8498;52.516;13.790;2023-08-01T19:10:10;1.30;;;1.17;;
16760;SDS011;8498;52.516;13.790;2023-08-01T19:15:33;2.55;;;1.75;;
16760;SDS011;8498;52.516;13.790;2023-08-01T19:20:57;2.10;;;1.50;;
16760;SDS011;8498;52.516;13.790;2023-08-01T19:26:20;1.40;;;1.38;;
16760;SDS011;8498;52.516;13.790;2023-08-01T19:31:43;2.80;;;1.88;;
16760;SDS011;8498;52.516;13.790;2023-08-01T19:37:05;2.55;;;1.58;;
16760;SDS011;8498;52.516;13.790;2023-08-01T19:42:28;1.77;;;1.67;;
16760;SDS011;8498;52.516;13.790;2023-08-01T19:47:50;6.68;;;1.83;;
16760;SDS011;8498;52.516;13.790;2023-08-01T19:53:13;2.10;;;1.52;;
16760;SDS011;8498;52.516;13.790;2023-08-01T19:58:36;3.53;;;1.83;;
16760;SDS011;8498;52.516;13.790;2023-08-01T20:03:58;2.95;;;1.70;;
16760;SDS011;8498;52.516;13.790;2023-08-01T20:09:22;1.75;;;1.65;;
16760;SDS011;8498;52.516;13.790;2023-08-01T20:14:45;2.08;;;1.73;;
16760;SDS011;8498;52.516;13.790;2023-08-01T20:20:08;2.15;;;1.70;;
16760;SDS011;8498;52.516;13.790;2023-08-01T20:25:31;2.55;;;2.13;;
16760;SDS011;8498;52.516;13.790;2023-08-01T20:30:54;1.80;;;1.70;;
16760;SDS011;8498;52.516;13.790;2023-08-01T20:36:16;3.65;;;1.67;;
16760;SDS011;8498;52.516;13.790;2023-08-01T20:41:39;2.63;;;1.42;;
16760;SDS011;8498;52.516;13.790;2023-08-01T20:47:01;2.22;;;1.95;;
16760;SDS011;8498;52.516;13.790;2023-08-01T20:52:24;2.10;;;1.40;;
16760;SDS011;8498;52.516;13.790;2023-08-01T20:57:46;2.83;;;1.92;;
16760;SDS011;8498;52.516;13.790;2023-08-01T21:03:10;3.67;;;2.03;;
16760;SDS011;8498;52.516;13.790;2023-08-01T21:08:32;3.53;;;2.10;;
16760;SDS011;8498;52.516;13.790;2023-08-01T21:13:55;2.60;;;2.00;;
16760;SDS011;8498;52.516;13.790;2023-08-01T21:19:17;4.60;;;2.05;;
16760;SDS011;8498;52.516;13.790;2023-08-01T21:24:40;4.72;;;2.20;;
16760;SDS011;8498;52.516;13.790;2023-08-01T21:30:02;3.55;;;1.90;;
16760;SDS011;8498;52.516;13.790;2023-08-01T21:35:25;7.45;;;2.17;;
16760;SDS011;8498;52.516;13.790;2023-08-01T21:40:47;2.13;;;1.85;;
16760;SDS011;8498;52.516;13.790;2023-08-01T21:46:10;3.20;;;2.03;;
16760;SDS011;8498;52.516;13.790;2023-08-01T21:51:32;4.18;;;2.45;;
16760;SDS011;8498;52.516;13.790;2023-08-01T21:56:55;4.03;;;2.08;;
16760;SDS011;8498;52.516;13.790;2023-08-01T22:02:17;3.47;;;2.05;;
16760;SDS011;8498;52.516;13.790;2023-08-01T22:07:41;1.73;;;1.60;;
16760;SDS011;8498;52.516;13.790;2023-08-01T22:13:04;2.30;;;1.98;;
16760;SDS011;8498;52.516;13.790;2023-08-01T22:18:26;3.20;;;2.10;;
16760;SDS011;8498;52.516;13.790;2023-08-01T22:23:48;2.10;;;2.00;;
16760;SDS011;8498;52.516;13.790;2023-08-01T22:29:11;3.80;;;1.88;;
16760;SDS011;8498;52.516;13.790;2023-08-01T22:34:33;2.50;;;1.80;;
16760;SDS011;8498;52.516;13.790;2023-08-01T22:39:56;6.38;;;2.13;;
16760;SDS011;8498;52.516;13.790;2023-08-01T22:45:18;4.00;;;1.95;;
16760;SDS011;8498;52.516;13.790;2023-08-01T22:50:41;3.38;;;2.33;;
16760;SDS011;8498;52.516;13.790;2023-08-01T22:56:04;3.92;;;1.88;;
16760;SDS011;8498;52.516;13.790;2023-08-01T23:01:26;2.22;;;1.73;;
16760;SDS011;8498;52.516;13.790;2023-08-01T23:06:51;2.53;;;2.10;;
16760;SDS011;8498;52.516;13.790;2023-08-01T23:12:14;2.85;;;2.03;;
16760;SDS011;8498;52.516;13.790;2023-08-01T23:17:36;6.28;;;2.35;;
16760;SDS011;8498;52.516;13.790;2023-08-01T23:23:00;5.65;;;2.28;;
16760;SDS011;8498;52.516;13.790;2023-08-01T23:28:23;3.03;;;2.08;;
16760;SDS011;8498;52.516;13.790;2023-08-01T23:33:45;5.32;;;2.15;;
16760;SDS011;8498;52.516;13.790;2023-08-01T23:39:07;2.60;;;2.17;;
16760;SDS011;8498;52.516;13.790;2023-08-01T23:44:29;3.60;;;2.22;;
16760;SDS011;8498;52.516;13.790;2023-08-01T23:49:52;2.95;;;2.28;;
16760;SDS011;8498;52.516;13.790;2023-08-01T23:55:14;2.97;;;2.05;;
